sensor_id;sensor_type;location;lat;lon;timestamp;P1;durP1;ratioP1;P2;durP2;ratioP2
4420;SDS011;11824;51.178;13.546;2023-06-14T00:00:12;7.07;;;3.63;;
4420;SDS011;11824;51.178;13.546;2023-06-14T00:02:41;5.27;;;3.40;;
4420;SDS011;11824;51.178;13.546;2023-06-14T00:05:09;5.10;;;3.13;;
4420;SDS011;11824;51.178;13.546;2023-06-14T00:07:39;4.07;;;3.43;;
4420;SDS011;11824;51.178;13.546;2023-06-14T00:10:09;5.17;;;3.60;;
4420;SDS011;11824;51.178;13.546;2023-06-14T00:12:37;8.10;;;3.77;;
4420;SDS011;11824;51.178;13.546;2023-06-14T00:15:05;4.43;;;3.50;;
4420;SDS011;11824;51.178;13.546;2023-06-14T00:17:35;4.00;;;3.53;;
4420;SDS011;11824;51.178;13.546;2023-06-14T00:20:04;3.90;;;3.60;;
4420;SDS011;11824;51.178;13.546;2023-06-14T00:22:32;4.60;;;3.63;;
4420;SDS011;11824;51.178;13.546;2023-06-14T00:25:02;4.67;;;4.17;;
4420;SDS011;11824;51.178;13.546;2023-06-14T00:27:50;5.90;;;3.27;;
4420;SDS011;11824;51.178;13.546;2023-06-14T00:30:17;10.63;;;3.70;;
4420;SDS011;11824;51.178;13.546;2023-06-14T00:32:45;4.37;;;2.90;;
4420;SDS011;11824;51.178;13.546;2023-06-14T00:35:13;4.03;;;2.97;;
4420;SDS011;11824;51.178;13.546;2023-06-14T00:37:41;6.07;;;3.77;;
4420;SDS011;11824;51.178;13.546;2023-06-14T00:40:09;4.03;;;3.63;;
4420;SDS011;11824;51.178;13.546;2023-06-14T00:42:37;3.40;;;3.10;;
4420;SDS011;11824;51.178;13.546;2023-06-14T00:45:05;4.10;;;3.73;;
4420;SDS011;11824;51.178;13.546;2023-06-14T00:47:34;3.77;;;3.37;;
4420;SDS011;11824;51.178;13.546;2023-06-14T00:50:05;3.70;;;3.20;;
4420;SDS011;11824;51.178;13.546;2023-06-14T00:52:34;4.23;;;3.53;;
4420;SDS011;11824;51.178;13.546;2023-06-14T00:55:02;5.03;;;4.33;;
4420;SDS011;11824;51.178;13.546;2023-06-14T00:57:30;3.40;;;3.10;;
4420;SDS011;11824;51.178;13.546;2023-06-14T00:59:57;4.30;;;3.90;;
4420;SDS011;11824;51.178;13.546;2023-06-14T01:02:25;4.30;;;3.37;;
4420;SDS011;11824;51.178;13.546;2023-06-14T01:04:53;3.73;;;3.43;;
4420;SDS011;11824;51.178;13.546;2023-06-14T01:07:23;4.47;;;3.70;;
4420;SDS011;11824;51.178;13.546;2023-06-14T01:10:00;5.63;;;3.93;;
4420;SDS011;11824;51.178;13.546;2023-06-14T01:12:35;5.00;;;3.73;;
4420;SDS011;11824;51.178;13.546;2023-06-14T01:15:11;9.77;;;4.00;;
4420;SDS011;11824;51.178;13.546;2023-06-14T01:17:41;8.27;;;3.43;;
4420;SDS011;11824;51.178;13.546;2023-06-14T01:20:11;19.77;;;3.73;;
4420;SDS011;11824;51.178;13.546;2023-06-14T01:22:49;4.03;;;3.57;;
4420;SDS011;11824;51.178;13.546;2023-06-14T01:25:17;6.30;;;4.40;;
4420;SDS011;11824;51.178;13.546;2023-06-14T01:27:48;4.17;;;3.77;;
4420;SDS011;11824;51.178;13.546;2023-06-14T01:30:18;6.33;;;3.40;;
4420;SDS011;11824;51.178;13.546;2023-06-14T01:32:48;4.90;;;3.87;;
4420;SDS011;11824;51.178;13.546;2023-06-14T01:35:17;5.03;;;4.37;;
4420;SDS011;11824;51.178;13.546;2023-06-14T01:37:45;4.27;;;3.87;;
4420;SDS011;11824;51.178;13.546;2023-06-14T01:40:15;4.03;;;3.70;;
4420;SDS011;11824;51.178;13.546;2023-06-14T01:42:43;11.60;;;4.70;;
4420;SDS011;11824;51.178;13.546;2023-06-14T01:45:12;12.40;;;4.43;;
4420;SDS011;11824;51.178;13.546;2023-06-14T01:47:40;4.30;;;3.30;;
4420;SDS011;11824;51.178;13.546;2023-06-14T01:50:08;4.47;;;4.03;;
4420;SDS011;11824;51.178;13.546;2023-06-14T01:52:36;5.03;;;3.87;;
4420;SDS011;11824;51.178;13.546;2023-06-14T01:55:05;5.80;;;4.07;;
4420;SDS011;11824;51.178;13.546;2023-06-14T01:57:33;6.33;;;3.87;;
4420;SDS011;11824;51.178;13.546;2023-06-14T02:00:01;6.00;;;4.60;;
4420;SDS011;11824;51.178;13.546;2023-06-14T02:02:29;3.80;;;3.40;;
4420;SDS011;11824;51.178;13.546;2023-06-14T02:04:57;15.27;;;4.50;;
4420;SDS011;11824;51.178;13.546;2023-06-14T02:07:24;7.03;;;4.60;;
4420;SDS011;11824;51.178;13.546;2023-06-14T02:09:52;4.00;;;3.57;;
4420;SDS011;11824;51.178;13.546;2023-06-14T02:12:20;5.70;;;4.40;;
4420;SDS011;11824;51.178;13.546;2023-06-14T02:14:47;6.30;;;3.97;;
4420;SDS011;11824;51.178;13.546;2023-06-14T02:17:15;5.60;;;3.83;;
4420;SDS011;11824;51.178;13.546;2023-06-14T02:19:43;8.80;;;3.83;;
4420;SDS011;11824;51.178;13.546;2023-06-14T02:22:10;4.10;;;3.70;;
4420;SDS011;11824;51.178;13.546;2023-06-14T02:24:40;5.60;;;4.20;;
4420;SDS011;11824;51.178;13.546;2023-06-14T02:27:07;6.30;;;4.13;;
4420;SDS011;11824;51.178;13.546;2023-06-14T02:29:37;7.13;;;3.83;;
4420;SDS011;11824;51.178;13.546;2023-06-14T02:32:04;6.70;;;4.03;;
4420;SDS011;11824;51.178;13.546;2023-06-14T02:34:33;6.23;;;4.10;;
4420;SDS011;11824;51.178;13.546;2023-06-14T02:37:00;6.03;;;3.60;;
4420;SDS011;11824;51.178;13.546;2023-06-14T02:39:28;4.33;;;3.93;;
4420;SDS011;11824;51.178;13.546;2023-06-14T02:41:56;6.30;;;3.80;;
4420;SDS011;11824;51.178;13.546;2023-06-14T02:44:24;6.10;;;4.60;;
4420;SDS011;11824;51.178;13.546;2023-06-14T02:46:53;5.33;;;4.10;;
4420;SDS011;11824;51.178;13.546;2023-06-14T02:49:21;4.80;;;4.20;;
4420;SDS011;11824;51.178;13.546;2023-06-14T02:51:49;4.77;;;3.93;;
4420;SDS011;11824;51.178;13.546;2023-06-14T02:54:16;11.77;;;4.43;;
4420;SDS011;11824;51.178;13.546;2023-06-14T02:56:45;5.00;;;4.47;;
4420;SDS011;11824;51.178;13.546;2023-06-14T02:59:12;8.20;;;4.10;;
4420;SDS011;11824;51.178;13.546;2023-06-14T03:01:40;9.63;;;4.07;;
4420;SDS011;11824;51.178;13.546;2023-06-14T03:04:08;6.87;;;4.63;;
4420;SDS011;11824;51.178;13.546;2023-06-14T03:06:36;4.50;;;4.10;;
4420;SDS011;11824;51.178;13.546;2023-06-14T03:09:05;4.90;;;4.10;;
4420;SDS011;11824;51.178;13.546;2023-06-14T03:11:34;5.10;;;4.20;;
4420;SDS011;11824;51.178;13.546;2023-06-14T03:14:02;9.10;;;4.60;;
4420;SDS011;11824;51.178;13.546;2023-06-14T03:16:30;4.80;;;4.33;;
4420;SDS011;11824;51.178;13.546;2023-06-14T03:18:57;9.50;;;4.30;;
4420;SDS011;11824;51.178;13.546;2023-06-14T03:21:25;4.40;;;4.00;;
4420;SDS011;11824;51.178;13.546;2023-06-14T03:23:53;5.00;;;4.30;;
4420;SDS011;11824;51.178;13.546;2023-06-14T03:26:21;5.80;;;4.30;;
4420;SDS011;11824;51.178;13.546;2023-06-14T03:28:48;4.53;;;4.13;;
4420;SDS011;11824;51.178;13.546;2023-06-14T03:31:15;6.10;;;4.87;;
4420;SDS011;11824;51.178;13.546;2023-06-14T03:33:44;6.77;;;4.80;;
4420;SDS011;11824;51.178;13.546;2023-06-14T03:36:12;5.53;;;3.87;;
4420;SDS011;11824;51.178;13.546;2023-06-14T03:38:40;6.73;;;5.20;;
4420;SDS011;11824;51.178;13.546;2023-06-14T03:41:07;14.07;;;5.47;;
4420;SDS011;11824;51.178;13.546;2023-06-14T03:43:35;5.70;;;5.07;;
4420;SDS011;11824;51.178;13.546;2023-06-14T03:46:02;6.90;;;5.60;;
4420;SDS011;11824;51.178;13.546;2023-06-14T03:48:30;10.33;;;5.30;;
4420;SDS011;11824;51.178;13.546;2023-06-14T03:50:57;8.23;;;5.77;;
4420;SDS011;11824;51.178;13.546;2023-06-14T03:53:27;9.13;;;5.40;;
4420;SDS011;11824;51.178;13.546;2023-06-14T03:55:56;5.33;;;4.83;;
4420;SDS011;11824;51.178;13.546;2023-06-14T03:58:23;8.73;;;6.07;;
4420;SDS011;11824;51.178;13.546;2023-06-14T04:00:51;7.23;;;4.90;;
4420;SDS011;11824;51.178;13.546;2023-06-14T04:03:18;8.57;;;5.77;;
4420;SDS011;11824;51.178;13.546;2023-06-14T04:05:49;7.33;;;5.93;;
4420;SDS011;11824;51.178;13.546;2023-06-14T04:08:22;7.30;;;5.60;;
4420;SDS011;11824;51.178;13.546;2023-06-14T04:10:50;7.07;;;6.07;;
4420;SDS011;11824;51.178;13.546;2023-06-14T04:13:18;6.43;;;5.43;;
4420;SDS011;11824;51.178;13.546;2023-06-14T04:15:46;10.87;;;7.03;;
4420;SDS011;11824;51.178;13.546;2023-06-14T04:18:14;8.20;;;5.50;;
4420;SDS011;11824;51.178;13.546;2023-06-14T04:20:41;9.27;;;5.50;;
4420;SDS011;11824;51.178;13.546;2023-06-14T04:23:14;5.37;;;4.70;;
4420;SDS011;11824;51.178;13.546;2023-06-14T04:25:43;8.53;;;5.10;;
4420;SDS011;11824;51.178;13.546;2023-06-14T04:28:11;8.13;;;5.77;;
4420;SDS011;11824;51.178;13.546;2023-06-14T04:30:42;7.73;;;5.00;;
4420;SDS011;11824;51.178;13.546;2023-06-14T04:33:10;7.40;;;5.20;;
4420;SDS011;11824;51.178;13.546;2023-06-14T04:35:37;4.83;;;4.43;;
4420;SDS011;11824;51.178;13.546;2023-06-14T04:38:06;8.03;;;5.70;;
4420;SDS011;11824;51.178;13.546;2023-06-14T04:40:35;6.97;;;5.27;;
4420;SDS011;11824;51.178;13.546;2023-06-14T04:43:08;6.57;;;5.50;;
4420;SDS011;11824;51.178;13.546;2023-06-14T04:45:38;9.00;;;6.10;;
4420;SDS011;11824;51.178;13.546;2023-06-14T04:48:11;7.70;;;4.80;;
4420;SDS011;11824;51.178;13.546;2023-06-14T04:50:39;5.00;;;4.60;;
4420;SDS011;11824;51.178;13.546;2023-06-14T04:53:06;12.00;;;6.03;;
4420;SDS011;11824;51.178;13.546;2023-06-14T04:55:34;7.77;;;5.10;;
4420;SDS011;11824;51.178;13.546;2023-06-14T04:58:02;7.47;;;5.83;;
4420;SDS011;11824;51.178;13.546;2023-06-14T05:00:29;5.73;;;5.23;;
4420;SDS011;11824;51.178;13.546;2023-06-14T05:02:58;7.37;;;5.97;;
4420;SDS011;11824;51.178;13.546;2023-06-14T05:05:27;8.30;;;5.27;;
4420;SDS011;11824;51.178;13.546;2023-06-14T05:07:55;5.70;;;5.17;;
4420;SDS011;11824;51.178;13.546;2023-06-14T05:10:22;7.63;;;5.40;;
4420;SDS011;11824;51.178;13.546;2023-06-14T05:12:51;8.07;;;5.60;;
4420;SDS011;11824;51.178;13.546;2023-06-14T05:15:20;6.73;;;6.03;;
4420;SDS011;11824;51.178;13.546;2023-06-14T05:17:51;13.90;;;6.53;;
4420;SDS011;11824;51.178;13.546;2023-06-14T05:20:21;5.33;;;4.83;;
4420;SDS011;11824;51.178;13.546;2023-06-14T05:22:53;5.77;;;5.17;;
4420;SDS011;11824;51.178;13.546;2023-06-14T05:25:22;6.27;;;5.27;;
4420;SDS011;11824;51.178;13.546;2023-06-14T05:27:50;14.70;;;6.03;;
4420;SDS011;11824;51.178;13.546;2023-06-14T05:30:18;6.77;;;6.10;;
4420;SDS011;11824;51.178;13.546;2023-06-14T05:32:45;8.90;;;5.73;;
4420;SDS011;11824;51.178;13.546;2023-06-14T05:35:13;6.67;;;5.97;;
4420;SDS011;11824;51.178;13.546;2023-06-14T05:37:43;10.03;;;5.93;;
4420;SDS011;11824;51.178;13.546;2023-06-14T05:40:11;7.23;;;6.00;;
4420;SDS011;11824;51.178;13.546;2023-06-14T05:42:39;7.40;;;6.27;;
4420;SDS011;11824;51.178;13.546;2023-06-14T05:45:07;15.90;;;5.83;;
4420;SDS011;11824;51.178;13.546;2023-06-14T05:47:34;6.67;;;5.77;;
4420;SDS011;11824;51.178;13.546;2023-06-14T05:50:02;7.70;;;5.63;;
4420;SDS011;11824;51.178;13.546;2023-06-14T05:52:30;8.10;;;5.90;;
4420;SDS011;11824;51.178;13.546;2023-06-14T05:54:58;6.20;;;5.50;;
4420;SDS011;11824;51.178;13.546;2023-06-14T05:57:27;6.27;;;5.70;;
4420;SDS011;11824;51.178;13.546;2023-06-14T05:59:54;5.70;;;5.20;;
4420;SDS011;11824;51.178;13.546;2023-06-14T06:02:22;7.30;;;5.23;;
4420;SDS011;11824;51.178;13.546;2023-06-14T06:04:49;12.13;;;5.73;;
4420;SDS011;11824;51.178;13.546;2023-06-14T06:07:16;7.70;;;5.23;;
4420;SDS011;11824;51.178;13.546;2023-06-14T06:09:44;5.03;;;4.60;;
4420;SDS011;11824;51.178;13.546;2023-06-14T06:12:12;6.10;;;4.87;;
4420;SDS011;11824;51.178;13.546;2023-06-14T06:14:40;7.50;;;6.00;;
4420;SDS011;11824;51.178;13.546;2023-06-14T06:17:07;15.13;;;5.77;;
4420;SDS011;11824;51.178;13.546;2023-06-14T06:19:38;8.00;;;5.73;;
4420;SDS011;11824;51.178;13.546;2023-06-14T06:22:05;9.00;;;5.40;;
4420;SDS011;11824;51.178;13.546;2023-06-14T06:24:33;13.20;;;5.80;;
4420;SDS011;11824;51.178;13.546;2023-06-14T06:27:01;5.23;;;4.73;;
4420;SDS011;11824;51.178;13.546;2023-06-14T06:29:33;8.93;;;5.50;;
4420;SDS011;11824;51.178;13.546;2023-06-14T06:32:02;8.13;;;5.67;;
4420;SDS011;11824;51.178;13.546;2023-06-14T06:34:30;5.20;;;4.67;;
4420;SDS011;11824;51.178;13.546;2023-06-14T06:36:57;11.33;;;5.70;;
4420;SDS011;11824;51.178;13.546;2023-06-14T06:39:24;6.27;;;5.67;;
4420;SDS011;11824;51.178;13.546;2023-06-14T06:41:52;9.67;;;5.67;;
4420;SDS011;11824;51.178;13.546;2023-06-14T06:44:19;6.90;;;6.20;;
4420;SDS011;11824;51.178;13.546;2023-06-14T06:46:46;5.93;;;5.37;;
4420;SDS011;11824;51.178;13.546;2023-06-14T06:49:15;7.33;;;5.57;;
4420;SDS011;11824;51.178;13.546;2023-06-14T06:51:43;8.63;;;5.47;;
4420;SDS011;11824;51.178;13.546;2023-06-14T06:54:25;6.33;;;5.67;;
4420;SDS011;11824;51.178;13.546;2023-06-14T06:56:52;7.40;;;5.60;;
4420;SDS011;11824;51.178;13.546;2023-06-14T06:59:19;6.03;;;4.70;;
4420;SDS011;11824;51.178;13.546;2023-06-14T07:01:47;5.27;;;4.77;;
4420;SDS011;11824;51.178;13.546;2023-06-14T07:04:17;5.40;;;4.90;;
4420;SDS011;11824;51.178;13.546;2023-06-14T07:06:45;4.87;;;4.13;;
4420;SDS011;11824;51.178;13.546;2023-06-14T07:09:13;5.50;;;4.53;;
4420;SDS011;11824;51.178;13.546;2023-06-14T07:11:43;6.83;;;4.17;;
4420;SDS011;11824;51.178;13.546;2023-06-14T07:14:10;5.60;;;4.73;;
4420;SDS011;11824;51.178;13.546;2023-06-14T07:16:38;5.30;;;4.27;;
4420;SDS011;11824;51.178;13.546;2023-06-14T07:19:08;6.50;;;4.50;;
4420;SDS011;11824;51.178;13.546;2023-06-14T07:21:37;5.43;;;4.53;;
4420;SDS011;11824;51.178;13.546;2023-06-14T07:24:04;4.50;;;4.10;;
4420;SDS011;11824;51.178;13.546;2023-06-14T07:26:33;6.13;;;4.47;;
4420;SDS011;11824;51.178;13.546;2023-06-14T07:29:01;4.40;;;4.00;;
4420;SDS011;11824;51.178;13.546;2023-06-14T07:31:29;5.77;;;3.50;;
4420;SDS011;11824;51.178;13.546;2023-06-14T07:33:56;12.20;;;4.60;;
4420;SDS011;11824;51.178;13.546;2023-06-14T07:36:23;5.90;;;4.83;;
4420;SDS011;11824;51.178;13.546;2023-06-14T07:38:52;5.40;;;3.90;;
4420;SDS011;11824;51.178;13.546;2023-06-14T07:41:19;6.10;;;4.47;;
4420;SDS011;11824;51.178;13.546;2023-06-14T07:43:47;7.07;;;4.63;;
4420;SDS011;11824;51.178;13.546;2023-06-14T07:46:14;11.00;;;4.53;;
4420;SDS011;11824;51.178;13.546;2023-06-14T07:48:42;3.60;;;3.07;;
4420;SDS011;11824;51.178;13.546;2023-06-14T07:51:12;5.60;;;4.50;;
4420;SDS011;11824;51.178;13.546;2023-06-14T07:53:40;7.80;;;4.67;;
4420;SDS011;11824;51.178;13.546;2023-06-14T07:56:08;8.10;;;4.73;;
4420;SDS011;11824;51.178;13.546;2023-06-14T07:58:41;9.53;;;5.07;;
4420;SDS011;11824;51.178;13.546;2023-06-14T08:01:09;4.00;;;3.70;;
4420;SDS011;11824;51.178;13.546;2023-06-14T08:03:37;4.00;;;3.27;;
4420;SDS011;11824;51.178;13.546;2023-06-14T08:06:06;7.73;;;4.40;;
4420;SDS011;11824;51.178;13.546;2023-06-14T08:08:33;4.27;;;3.80;;
4420;SDS011;11824;51.178;13.546;2023-06-14T08:11:03;7.03;;;3.87;;
4420;SDS011;11824;51.178;13.546;2023-06-14T08:13:31;5.20;;;4.23;;
4420;SDS011;11824;51.178;13.546;2023-06-14T08:15:59;3.87;;;3.00;;
4420;SDS011;11824;51.178;13.546;2023-06-14T08:18:28;7.23;;;4.63;;
4420;SDS011;11824;51.178;13.546;2023-06-14T08:20:56;7.70;;;4.70;;
4420;SDS011;11824;51.178;13.546;2023-06-14T08:23:26;5.90;;;4.47;;
4420;SDS011;11824;51.178;13.546;2023-06-14T08:25:53;4.20;;;3.50;;
4420;SDS011;11824;51.178;13.546;2023-06-14T08:28:21;4.60;;;4.00;;
4420;SDS011;11824;51.178;13.546;2023-06-14T08:30:51;8.10;;;3.97;;
4420;SDS011;11824;51.178;13.546;2023-06-14T08:33:18;14.13;;;3.60;;
4420;SDS011;11824;51.178;13.546;2023-06-14T08:35:46;5.57;;;4.40;;
4420;SDS011;11824;51.178;13.546;2023-06-14T08:38:14;3.53;;;2.23;;
4420;SDS011;11824;51.178;13.546;2023-06-14T08:40:41;6.00;;;4.03;;
4420;SDS011;11824;51.178;13.546;2023-06-14T08:43:11;3.90;;;3.27;;
4420;SDS011;11824;51.178;13.546;2023-06-14T08:45:39;4.43;;;3.73;;
4420;SDS011;11824;51.178;13.546;2023-06-14T08:48:08;6.60;;;3.40;;
4420;SDS011;11824;51.178;13.546;2023-06-14T08:50:36;6.83;;;3.90;;
4420;SDS011;11824;51.178;13.546;2023-06-14T08:53:07;4.20;;;3.77;;
4420;SDS011;11824;51.178;13.546;2023-06-14T08:55:37;5.10;;;3.33;;
4420;SDS011;11824;51.178;13.546;2023-06-14T08:58:09;4.50;;;2.80;;
4420;SDS011;11824;51.178;13.546;2023-06-14T09:00:39;5.03;;;3.00;;
4420;SDS011;11824;51.178;13.546;2023-06-14T09:03:09;2.60;;;2.40;;
4420;SDS011;11824;51.178;13.546;2023-06-14T09:05:39;5.47;;;2.83;;
4420;SDS011;11824;51.178;13.546;2023-06-14T09:08:06;3.70;;;3.40;;
4420;SDS011;11824;51.178;13.546;2023-06-14T09:10:33;3.23;;;2.77;;
4420;SDS011;11824;51.178;13.546;2023-06-14T09:13:03;5.00;;;3.13;;
4420;SDS011;11824;51.178;13.546;2023-06-14T09:15:30;5.60;;;3.10;;
4420;SDS011;11824;51.178;13.546;2023-06-14T09:18:00;5.17;;;2.80;;
4420;SDS011;11824;51.178;13.546;2023-06-14T09:20:29;3.80;;;3.13;;
4420;SDS011;11824;51.178;13.546;2023-06-14T09:23:00;3.40;;;3.10;;
4420;SDS011;11824;51.178;13.546;2023-06-14T09:25:30;4.20;;;3.50;;
4420;SDS011;11824;51.178;13.546;2023-06-14T09:28:06;3.60;;;3.30;;
4420;SDS011;11824;51.178;13.546;2023-06-14T09:30:34;4.33;;;3.80;;
4420;SDS011;11824;51.178;13.546;2023-06-14T09:33:03;10.63;;;2.90;;
4420;SDS011;11824;51.178;13.546;2023-06-14T09:35:32;6.10;;;2.70;;
4420;SDS011;11824;51.178;13.546;2023-06-14T09:38:00;7.97;;;3.70;;
4420;SDS011;11824;51.178;13.546;2023-06-14T09:40:28;9.53;;;3.10;;
4420;SDS011;11824;51.178;13.546;2023-06-14T09:42:59;3.60;;;3.30;;
4420;SDS011;11824;51.178;13.546;2023-06-14T09:45:27;2.37;;;2.17;;
4420;SDS011;11824;51.178;13.546;2023-06-14T09:47:57;3.23;;;2.93;;
4420;SDS011;11824;51.178;13.546;2023-06-14T09:50:34;10.30;;;3.77;;
4420;SDS011;11824;51.178;13.546;2023-06-14T09:53:02;4.90;;;3.30;;
4420;SDS011;11824;51.178;13.546;2023-06-14T09:55:33;3.73;;;3.40;;
4420;SDS011;11824;51.178;13.546;2023-06-14T09:58:04;3.97;;;3.57;;
4420;SDS011;11824;51.178;13.546;2023-06-14T10:00:33;2.30;;;2.10;;
4420;SDS011;11824;51.178;13.546;2023-06-14T10:03:03;3.73;;;3.27;;
4420;SDS011;11824;51.178;13.546;2023-06-14T10:05:38;3.80;;;3.50;;
4420;SDS011;11824;51.178;13.546;2023-06-14T10:08:08;5.60;;;3.30;;
4420;SDS011;11824;51.178;13.546;2023-06-14T10:10:38;4.17;;;3.70;;
4420;SDS011;11824;51.178;13.546;2023-06-14T10:13:06;4.60;;;3.57;;
4420;SDS011;11824;51.178;13.546;2023-06-14T10:15:38;3.40;;;3.10;;
4420;SDS011;11824;51.178;13.546;2023-06-14T10:18:11;4.37;;;3.97;;
4420;SDS011;11824;51.178;13.546;2023-06-14T10:20:51;5.30;;;4.27;;
4420;SDS011;11824;51.178;13.546;2023-06-14T10:23:23;5.57;;;3.40;;
4420;SDS011;11824;51.178;13.546;2023-06-14T10:25:54;6.00;;;4.13;;
4420;SDS011;11824;51.178;13.546;2023-06-14T10:28:23;4.27;;;3.87;;
4420;SDS011;11824;51.178;13.546;2023-06-14T10:31:03;4.30;;;3.90;;
4420;SDS011;11824;51.178;13.546;2023-06-14T10:33:31;6.00;;;4.00;;
4420;SDS011;11824;51.178;13.546;2023-06-14T10:36:10;5.17;;;4.57;;
4420;SDS011;11824;51.178;13.546;2023-06-14T10:39:00;4.37;;;3.33;;
4420;SDS011;11824;51.178;13.546;2023-06-14T10:41:30;6.00;;;4.53;;
4420;SDS011;11824;51.178;13.546;2023-06-14T10:47:26;5.20;;;3.33;;
4420;SDS011;11824;51.178;13.546;2023-06-14T10:49:55;7.27;;;5.10;;
4420;SDS011;11824;51.178;13.546;2023-06-14T10:52:26;6.57;;;4.23;;
4420;SDS011;11824;51.178;13.546;2023-06-14T10:54:55;7.47;;;5.17;;
4420;SDS011;11824;51.178;13.546;2023-06-14T10:57:31;5.90;;;4.50;;
4420;SDS011;11824;51.178;13.546;2023-06-14T11:00:14;11.30;;;4.93;;
4420;SDS011;11824;51.178;13.546;2023-06-14T11:02:46;6.83;;;5.07;;
4420;SDS011;11824;51.178;13.546;2023-06-14T11:05:40;5.70;;;4.80;;
4420;SDS011;11824;51.178;13.546;2023-06-14T11:11:31;5.20;;;4.70;;
4420;SDS011;11824;51.178;13.546;2023-06-14T11:13:59;5.43;;;4.20;;
4420;SDS011;11824;51.178;13.546;2023-06-14T11:16:27;6.60;;;4.73;;
4420;SDS011;11824;51.178;13.546;2023-06-14T11:18:55;5.33;;;4.47;;
4420;SDS011;11824;51.178;13.546;2023-06-14T11:21:23;3.60;;;2.80;;
4420;SDS011;11824;51.178;13.546;2023-06-14T11:23:56;4.57;;;3.00;;
4420;SDS011;11824;51.178;13.546;2023-06-14T11:26:27;3.97;;;3.60;;
4420;SDS011;11824;51.178;13.546;2023-06-14T11:28:56;3.63;;;3.03;;
4420;SDS011;11824;51.178;13.546;2023-06-14T11:31:24;3.63;;;3.00;;
4420;SDS011;11824;51.178;13.546;2023-06-14T11:33:53;6.77;;;4.37;;
4420;SDS011;11824;51.178;13.546;2023-06-14T11:36:22;4.13;;;3.73;;
4420;SDS011;11824;51.178;13.546;2023-06-14T11:38:57;4.13;;;3.10;;
4420;SDS011;11824;51.178;13.546;2023-06-14T11:41:31;4.20;;;3.80;;
4420;SDS011;11824;51.178;13.546;2023-06-14T11:44:00;5.97;;;3.20;;
4420;SDS011;11824;51.178;13.546;2023-06-14T11:46:28;5.10;;;4.10;;
4420;SDS011;11824;51.178;13.546;2023-06-14T11:48:56;4.17;;;3.80;;
4420;SDS011;11824;51.178;13.546;2023-06-14T11:51:24;3.93;;;3.43;;
4420;SDS011;11824;51.178;13.546;2023-06-14T11:53:51;4.33;;;2.90;;
4420;SDS011;11824;51.178;13.546;2023-06-14T11:56:19;4.13;;;3.50;;
4420;SDS011;11824;51.178;13.546;2023-06-14T11:58:46;6.90;;;3.70;;
4420;SDS011;11824;51.178;13.546;2023-06-14T12:01:15;6.10;;;4.03;;
4420;SDS011;11824;51.178;13.546;2023-06-14T12:03:49;4.67;;;3.80;;
4420;SDS011;11824;51.178;13.546;2023-06-14T12:06:24;4.50;;;3.70;;
4420;SDS011;11824;51.178;13.546;2023-06-14T12:08:55;5.60;;;4.10;;
4420;SDS011;11824;51.178;13.546;2023-06-14T12:11:23;5.00;;;4.57;;
4420;SDS011;11824;51.178;13.546;2023-06-14T12:13:54;4.13;;;3.27;;
4420;SDS011;11824;51.178;13.546;2023-06-14T12:16:29;3.73;;;3.43;;
4420;SDS011;11824;51.178;13.546;2023-06-14T12:19:00;4.80;;;4.33;;
4420;SDS011;11824;51.178;13.546;2023-06-14T12:21:34;10.20;;;5.27;;
4420;SDS011;11824;51.178;13.546;2023-06-14T12:24:04;5.23;;;4.60;;
4420;SDS011;11824;51.178;13.546;2023-06-14T12:26:32;7.10;;;5.87;;
4420;SDS011;11824;51.178;13.546;2023-06-14T12:29:04;7.73;;;5.10;;
4420;SDS011;11824;51.178;13.546;2023-06-14T12:31:33;8.00;;;6.60;;
4420;SDS011;11824;51.178;13.546;2023-06-14T12:34:00;10.63;;;6.83;;
4420;SDS011;11824;51.178;13.546;2023-06-14T12:36:28;10.53;;;6.50;;
4420;SDS011;11824;51.178;13.546;2023-06-14T12:38:55;7.67;;;5.87;;
4420;SDS011;11824;51.178;13.546;2023-06-14T12:41:22;7.53;;;6.27;;
4420;SDS011;11824;51.178;13.546;2023-06-14T12:43:50;8.47;;;6.50;;
4420;SDS011;11824;51.178;13.546;2023-06-14T12:46:17;6.37;;;5.77;;
4420;SDS011;11824;51.178;13.546;2023-06-14T12:48:46;5.47;;;4.97;;
4420;SDS011;11824;51.178;13.546;2023-06-14T12:51:13;4.70;;;4.20;;
4420;SDS011;11824;51.178;13.546;2023-06-14T12:53:41;8.73;;;5.30;;
4420;SDS011;11824;51.178;13.546;2023-06-14T12:56:09;5.23;;;4.70;;
4420;SDS011;11824;51.178;13.546;2023-06-14T12:58:37;4.60;;;4.20;;
4420;SDS011;11824;51.178;13.546;2023-06-14T13:01:04;9.23;;;4.57;;
4420;SDS011;11824;51.178;13.546;2023-06-14T13:03:31;5.70;;;4.40;;
4420;SDS011;11824;51.178;13.546;2023-06-14T13:06:00;9.53;;;7.70;;
4420;SDS011;11824;51.178;13.546;2023-06-14T13:08:29;5.37;;;4.20;;
4420;SDS011;11824;51.178;13.546;2023-06-14T13:10:57;9.80;;;4.30;;
4420;SDS011;11824;51.178;13.546;2023-06-14T13:13:24;6.90;;;5.10;;
4420;SDS011;11824;51.178;13.546;2023-06-14T13:15:52;5.17;;;4.20;;
4420;SDS011;11824;51.178;13.546;2023-06-14T13:18:19;19.77;;;3.63;;
4420;SDS011;11824;51.178;13.546;2023-06-14T13:20:46;5.03;;;4.03;;
4420;SDS011;11824;51.178;13.546;2023-06-14T13:23:15;4.97;;;3.90;;
4420;SDS011;11824;51.178;13.546;2023-06-14T13:25:42;4.23;;;3.73;;
4420;SDS011;11824;51.178;13.546;2023-06-14T13:28:10;7.60;;;3.83;;
4420;SDS011;11824;51.178;13.546;2023-06-14T13:30:37;3.83;;;3.40;;
4420;SDS011;11824;51.178;13.546;2023-06-14T13:33:05;5.90;;;3.27;;
4420;SDS011;11824;51.178;13.546;2023-06-14T13:35:32;4.73;;;3.70;;
4420;SDS011;11824;51.178;13.546;2023-06-14T13:38:00;9.70;;;4.17;;
4420;SDS011;11824;51.178;13.546;2023-06-14T13:40:28;6.73;;;3.90;;
4420;SDS011;11824;51.178;13.546;2023-06-14T13:42:55;4.40;;;4.00;;
4420;SDS011;11824;51.178;13.546;2023-06-14T13:45:23;5.80;;;3.67;;
4420;SDS011;11824;51.178;13.546;2023-06-14T13:47:50;5.73;;;3.00;;
4420;SDS011;11824;51.178;13.546;2023-06-14T13:50:18;3.80;;;3.37;;
4420;SDS011;11824;51.178;13.546;2023-06-14T13:52:45;9.57;;;3.27;;
4420;SDS011;11824;51.178;13.546;2023-06-14T13:55:13;3.90;;;3.50;;
4420;SDS011;11824;51.178;13.546;2023-06-14T13:57:41;5.60;;;3.90;;
4420;SDS011;11824;51.178;13.546;2023-06-14T14:00:09;5.90;;;2.87;;
4420;SDS011;11824;51.178;13.546;2023-06-14T14:02:37;5.50;;;4.20;;
4420;SDS011;11824;51.178;13.546;2023-06-14T14:05:06;4.70;;;3.53;;
4420;SDS011;11824;51.178;13.546;2023-06-14T14:07:34;4.90;;;4.47;;
4420;SDS011;11824;51.178;13.546;2023-06-14T14:10:03;6.50;;;4.53;;
4420;SDS011;11824;51.178;13.546;2023-06-14T14:12:31;6.57;;;4.40;;
4420;SDS011;11824;51.178;13.546;2023-06-14T14:14:59;5.23;;;4.00;;
4420;SDS011;11824;51.178;13.546;2023-06-14T14:17:27;6.80;;;4.43;;
4420;SDS011;11824;51.178;13.546;2023-06-14T14:19:54;6.17;;;3.90;;
4420;SDS011;11824;51.178;13.546;2023-06-14T14:22:22;5.20;;;4.13;;
4420;SDS011;11824;51.178;13.546;2023-06-14T14:24:49;3.43;;;3.10;;
4420;SDS011;11824;51.178;13.546;2023-06-14T14:27:17;12.23;;;3.40;;
4420;SDS011;11824;51.178;13.546;2023-06-14T14:29:44;4.20;;;3.80;;
4420;SDS011;11824;51.178;13.546;2023-06-14T14:32:12;9.10;;;3.70;;
4420;SDS011;11824;51.178;13.546;2023-06-14T14:34:40;3.57;;;3.27;;
4420;SDS011;11824;51.178;13.546;2023-06-14T14:37:08;4.60;;;3.20;;
4420;SDS011;11824;51.178;13.546;2023-06-14T14:39:36;4.40;;;3.03;;
4420;SDS011;11824;51.178;13.546;2023-06-14T14:42:06;9.00;;;3.60;;
4420;SDS011;11824;51.178;13.546;2023-06-14T14:44:34;5.30;;;3.43;;
4420;SDS011;11824;51.178;13.546;2023-06-14T14:47:01;3.00;;;2.70;;
4420;SDS011;11824;51.178;13.546;2023-06-14T14:49:30;4.90;;;3.33;;
4420;SDS011;11824;51.178;13.546;2023-06-14T14:51:58;7.63;;;3.80;;
4420;SDS011;11824;51.178;13.546;2023-06-14T14:54:40;4.40;;;3.33;;
4420;SDS011;11824;51.178;13.546;2023-06-14T14:57:07;3.50;;;3.00;;
4420;SDS011;11824;51.178;13.546;2023-06-14T14:59:36;4.23;;;3.23;;
4420;SDS011;11824;51.178;13.546;2023-06-14T15:02:03;3.10;;;2.80;;